sensor_id;sensor_type;location;lat;lon;timestamp;temperature;humidity
2477;DHT22;1249;51.270;6.756;2023-05-16T00:01:21;19.30;99.90
2477;DHT22;1249;51.270;6.756;2023-05-16T00:03:47;19.30;99.90
2477;DHT22;1249;51.270;6.756;2023-05-16T00:06:12;19.30;99.90
2477;DHT22;1249;51.270;6.756;2023-05-16T00:08:39;19.20;99.90
2477;DHT22;1249;51.270;6.756;2023-05-16T00:11:05;19.20;99.90
2477;DHT22;1249;51.270;6.756;2023-05-16T00:13:31;19.20;99.90
2477;DHT22;1249;51.270;6.756;2023-05-16T00:15:56;19.20;99.90
2477;DHT22;1249;51.270;6.756;2023-05-16T00:18:23;19.20;99.90
2477;DHT22;1249;51.270;6.756;2023-05-16T00:20:50;19.20;99.90
2477;DHT22;1249;51.270;6.756;2023-05-16T00:23:16;19.20;99.90
2477;DHT22;1249;51.270;6.756;2023-05-16T00:25:42;19.10;99.90
2477;DHT22;1249;51.270;6.756;2023-05-16T00:28:07;19.10;99.90
2477;DHT22;1249;51.270;6.756;2023-05-16T00:30:33;19.10;99.90
2477;DHT22;1249;51.270;6.756;2023-05-16T00:32:59;19.10;99.90
2477;DHT22;1249;51.270;6.756;2023-05-16T00:35:25;19.10;99.90
2477;DHT22;1249;51.270;6.756;2023-05-16T00:37:51;19.00;99.90
2477;DHT22;1249;51.270;6.756;2023-05-16T00:40:16;19.00;99.90
2477;DHT22;1249;51.270;6.756;2023-05-16T00:42:42;19.00;99.90
2477;DHT22;1249;51.270;6.756;2023-05-16T00:45:08;19.00;99.90
2477;DHT22;1249;51.270;6.756;2023-05-16T00:47:35;18.90;99.90
2477;DHT22;1249;51.270;6.756;2023-05-16T00:50:01;18.90;99.90
2477;DHT22;1249;51.270;6.756;2023-05-16T00:52:27;18.90;99.90
2477;DHT22;1249;51.270;6.756;2023-05-16T00:54:53;18.90;99.90
2477;DHT22;1249;51.270;6.756;2023-05-16T00:57:18;18.90;99.90
2477;DHT22;1249;51.270;6.756;2023-05-16T00:59:46;18.80;99.90
2477;DHT22;1249;51.270;6.756;2023-05-16T01:02:12;18.80;99.90
2477;DHT22;1249;51.270;6.756;2023-05-16T01:04:38;18.80;99.90
2477;DHT22;1249;51.270;6.756;2023-05-16T01:07:04;18.80;99.90
2477;DHT22;1249;51.270;6.756;2023-05-16T01:09:30;18.80;99.90
2477;DHT22;1249;51.270;6.756;2023-05-16T01:15:27;18.80;99.90
2477;DHT22;1249;51.270;6.756;2023-05-16T01:18:06;18.70;99.90
2477;DHT22;1249;51.270;6.756;2023-05-16T01:26:14;18.70;99.90
2477;DHT22;1249;51.270;6.756;2023-05-16T01:28:44;18.70;99.90
2477;DHT22;1249;51.270;6.756;2023-05-16T01:31:10;18.70;99.90
2477;DHT22;1249;51.270;6.756;2023-05-16T01:33:36;18.70;99.90
2477;DHT22;1249;51.270;6.756;2023-05-16T01:38:58;18.70;99.90
2477;DHT22;1249;51.270;6.756;2023-05-16T01:41:52;18.60;99.90
2477;DHT22;1249;51.270;6.756;2023-05-16T01:44:24;18.60;99.90
2477;DHT22;1249;51.270;6.756;2023-05-16T01:46:55;18.60;99.90
2477;DHT22;1249;51.270;6.756;2023-05-16T01:49:53;18.50;99.90
2477;DHT22;1249;51.270;6.756;2023-05-16T01:53:11;18.50;99.90
2477;DHT22;1249;51.270;6.756;2023-05-16T01:55:22;18.50;99.90
2477;DHT22;1249;51.270;6.756;2023-05-16T01:57:49;18.50;99.90
2477;DHT22;1249;51.270;6.756;2023-05-16T02:00:15;18.50;99.90
2477;DHT22;1249;51.270;6.756;2023-05-16T02:02:41;18.50;99.90
2477;DHT22;1249;51.270;6.756;2023-05-16T02:05:07;18.50;99.90
2477;DHT22;1249;51.270;6.756;2023-05-16T02:07:32;18.50;99.90
2477;DHT22;1249;51.270;6.756;2023-05-16T02:09:58;18.50;99.90
2477;DHT22;1249;51.270;6.756;2023-05-16T02:12:24;18.50;99.90
2477;DHT22;1249;51.270;6.756;2023-05-16T02:14:49;18.50;99.90
2477;DHT22;1249;51.270;6.756;2023-05-16T02:17:15;18.40;99.90
2477;DHT22;1249;51.270;6.756;2023-05-16T02:19:40;18.40;99.90
2477;DHT22;1249;51.270;6.756;2023-05-16T02:22:06;18.40;99.90
2477;DHT22;1249;51.270;6.756;2023-05-16T02:24:32;18.40;99.90
2477;DHT22;1249;51.270;6.756;2023-05-16T02:26:57;18.40;99.90
2477;DHT22;1249;51.270;6.756;2023-05-16T02:29:23;18.40;99.90
2477;DHT22;1249;51.270;6.756;2023-05-16T02:31:48;18.30;99.90
2477;DHT22;1249;51.270;6.756;2023-05-16T02:34:14;18.30;99.90
2477;DHT22;1249;51.270;6.756;2023-05-16T02:36:40;18.30;99.90
2477;DHT22;1249;51.270;6.756;2023-05-16T02:39:06;18.20;99.90
2477;DHT22;1249;51.270;6.756;2023-05-16T02:41:34;18.30;99.90
2477;DHT22;1249;51.270;6.756;2023-05-16T02:44:00;18.30;99.90
2477;DHT22;1249;51.270;6.756;2023-05-16T02:46:30;18.30;99.90
2477;DHT22;1249;51.270;6.756;2023-05-16T02:48:56;18.30;99.90
2477;DHT22;1249;51.270;6.756;2023-05-16T02:51:24;18.30;99.90
2477;DHT22;1249;51.270;6.756;2023-05-16T02:53:50;18.20;99.90
2477;DHT22;1249;51.270;6.756;2023-05-16T02:56:16;18.20;99.90
2477;DHT22;1249;51.270;6.756;2023-05-16T02:58:42;18.20;99.90
2477;DHT22;1249;51.270;6.756;2023-05-16T03:01:08;18.20;99.90
2477;DHT22;1249;51.270;6.756;2023-05-16T03:03:35;18.20;99.90
2477;DHT22;1249;51.270;6.756;2023-05-16T03:06:02;18.20;99.90
2477;DHT22;1249;51.270;6.756;2023-05-16T03:08:27;18.20;99.90
2477;DHT22;1249;51.270;6.756;2023-05-16T03:10:53;18.20;99.90
2477;DHT22;1249;51.270;6.756;2023-05-16T03:13:18;18.20;99.90
2477;DHT22;1249;51.270;6.756;2023-05-16T03:15:45;18.10;99.90
2477;DHT22;1249;51.270;6.756;2023-05-16T03:18:10;18.10;99.90
2477;DHT22;1249;51.270;6.756;2023-05-16T03:20:37;18.10;99.90
2477;DHT22;1249;51.270;6.756;2023-05-16T03:23:02;18.10;99.90
2477;DHT22;1249;51.270;6.756;2023-05-16T03:25:32;18.10;99.90
2477;DHT22;1249;51.270;6.756;2023-05-16T03:27:59;18.10;99.90
2477;DHT22;1249;51.270;6.756;2023-05-16T03:30:26;18.10;99.90
2477;DHT22;1249;51.270;6.756;2023-05-16T03:32:51;18.10;99.90
2477;DHT22;1249;51.270;6.756;2023-05-16T03:35:17;18.00;99.90
2477;DHT22;1249;51.270;6.756;2023-05-16T03:37:43;18.00;99.90
2477;DHT22;1249;51.270;6.756;2023-05-16T03:40:09;18.00;99.90
2477;DHT22;1249;51.270;6.756;2023-05-16T03:42:35;17.90;99.90
2477;DHT22;1249;51.270;6.756;2023-05-16T03:45:01;18.00;99.90
2477;DHT22;1249;51.270;6.756;2023-05-16T03:47:27;17.90;99.90
2477;DHT22;1249;51.270;6.756;2023-05-16T03:49:55;17.90;99.90
2477;DHT22;1249;51.270;6.756;2023-05-16T03:52:21;17.90;99.90
2477;DHT22;1249;51.270;6.756;2023-05-16T03:54:46;17.90;99.90
2477;DHT22;1249;51.270;6.756;2023-05-16T03:57:12;17.90;99.90
2477;DHT22;1249;51.270;6.756;2023-05-16T03:59:38;17.90;99.90
2477;DHT22;1249;51.270;6.756;2023-05-16T04:02:03;17.90;99.90
2477;DHT22;1249;51.270;6.756;2023-05-16T04:04:29;17.90;99.90
2477;DHT22;1249;51.270;6.756;2023-05-16T04:06:55;17.80;99.90
2477;DHT22;1249;51.270;6.756;2023-05-16T04:09:20;17.80;99.90
2477;DHT22;1249;51.270;6.756;2023-05-16T04:11:46;17.80;99.90
2477;DHT22;1249;51.270;6.756;2023-05-16T04:14:11;17.80;99.90
2477;DHT22;1249;51.270;6.756;2023-05-16T04:16:37;17.80;99.90
2477;DHT22;1249;51.270;6.756;2023-05-16T04:19:02;17.70;99.90
2477;DHT22;1249;51.270;6.756;2023-05-16T04:21:28;17.70;99.90
2477;DHT22;1249;51.270;6.756;2023-05-16T04:23:53;17.70;99.90
2477;DHT22;1249;51.270;6.756;2023-05-16T04:26:19;17.70;99.90
2477;DHT22;1249;51.270;6.756;2023-05-16T04:28:46;17.70;99.90
2477;DHT22;1249;51.270;6.756;2023-05-16T04:31:12;17.60;99.90
2477;DHT22;1249;51.270;6.756;2023-05-16T04:33:38;17.60;99.90
2477;DHT22;1249;51.270;6.756;2023-05-16T04:36:04;17.60;99.90
2477;DHT22;1249;51.270;6.756;2023-05-16T04:38:30;17.60;99.90
2477;DHT22;1249;51.270;6.756;2023-05-16T04:40:57;17.60;99.90
2477;DHT22;1249;51.270;6.756;2023-05-16T04:43:22;17.60;99.90
2477;DHT22;1249;51.270;6.756;2023-05-16T04:45:48;17.60;99.90
2477;DHT22;1249;51.270;6.756;2023-05-16T04:48:14;17.60;99.90
2477;DHT22;1249;51.270;6.756;2023-05-16T04:50:40;17.60;99.90
2477;DHT22;1249;51.270;6.756;2023-05-16T04:53:06;17.60;99.90
2477;DHT22;1249;51.270;6.756;2023-05-16T04:55:32;17.60;99.90
2477;DHT22;1249;51.270;6.756;2023-05-16T04:57:57;17.60;99.90
2477;DHT22;1249;51.270;6.756;2023-05-16T05:00:23;17.50;99.90
2477;DHT22;1249;51.270;6.756;2023-05-16T05:02:49;17.60;99.90
2477;DHT22;1249;51.270;6.756;2023-05-16T05:05:14;17.50;99.90
2477;DHT22;1249;51.270;6.756;2023-05-16T05:07:40;17.60;99.90
2477;DHT22;1249;51.270;6.756;2023-05-16T05:10:06;17.50;99.90
2477;DHT22;1249;51.270;6.756;2023-05-16T05:12:32;17.50;99.90
2477;DHT22;1249;51.270;6.756;2023-05-16T05:14:58;17.40;99.90
2477;DHT22;1249;51.270;6.756;2023-05-16T05:17:24;17.40;99.90
2477;DHT22;1249;51.270;6.756;2023-05-16T05:19:49;17.30;99.90
2477;DHT22;1249;51.270;6.756;2023-05-16T05:22:15;17.20;99.90
2477;DHT22;1249;51.270;6.756;2023-05-16T05:24:40;17.20;99.90
2477;DHT22;1249;51.270;6.756;2023-05-16T05:27:06;17.10;99.90
2477;DHT22;1249;51.270;6.756;2023-05-16T05:29:31;17.20;99.90
2477;DHT22;1249;51.270;6.756;2023-05-16T05:31:57;17.10;99.90
2477;DHT22;1249;51.270;6.756;2023-05-16T05:34:23;17.10;99.90
2477;DHT22;1249;51.270;6.756;2023-05-16T05:36:48;17.10;99.90
2477;DHT22;1249;51.270;6.756;2023-05-16T05:39:14;17.10;99.90
2477;DHT22;1249;51.270;6.756;2023-05-16T05:41:39;17.10;99.90
2477;DHT22;1249;51.270;6.756;2023-05-16T05:44:05;17.10;99.90
2477;DHT22;1249;51.270;6.756;2023-05-16T05:46:31;17.20;99.90
2477;DHT22;1249;51.270;6.756;2023-05-16T05:48:58;17.40;99.90
2477;DHT22;1249;51.270;6.756;2023-05-16T05:51:24;17.60;99.90
2477;DHT22;1249;51.270;6.756;2023-05-16T05:53:51;17.60;99.90
2477;DHT22;1249;51.270;6.756;2023-05-16T05:56:16;17.80;99.90
2477;DHT22;1249;51.270;6.756;2023-05-16T05:58:42;17.80;99.90
2477;DHT22;1249;51.270;6.756;2023-05-16T06:01:10;18.10;99.90
2477;DHT22;1249;51.270;6.756;2023-05-16T06:03:35;18.30;99.90
2477;DHT22;1249;51.270;6.756;2023-05-16T06:06:01;18.30;99.90
2477;DHT22;1249;51.270;6.756;2023-05-16T06:08:26;18.20;99.90
2477;DHT22;1249;51.270;6.756;2023-05-16T06:10:52;18.20;99.90
2477;DHT22;1249;51.270;6.756;2023-05-16T06:13:18;18.20;99.90
2477;DHT22;1249;51.270;6.756;2023-05-16T06:15:48;18.20;99.90
2477;DHT22;1249;51.270;6.756;2023-05-16T06:18:14;18.30;99.90
2477;DHT22;1249;51.270;6.756;2023-05-16T06:20:40;18.30;99.90
2477;DHT22;1249;51.270;6.756;2023-05-16T06:23:05;18.30;99.90
2477;DHT22;1249;51.270;6.756;2023-05-16T06:25:31;18.30;99.90
2477;DHT22;1249;51.270;6.756;2023-05-16T06:27:56;18.40;99.90
2477;DHT22;1249;51.270;6.756;2023-05-16T06:30:22;19.10;99.90
2477;DHT22;1249;51.270;6.756;2023-05-16T06:32:48;18.90;99.90
2477;DHT22;1249;51.270;6.756;2023-05-16T06:35:13;18.80;99.90
2477;DHT22;1249;51.270;6.756;2023-05-16T06:37:39;18.80;99.90
2477;DHT22;1249;51.270;6.756;2023-05-16T06:40:05;18.90;99.90
2477;DHT22;1249;51.270;6.756;2023-05-16T06:42:31;19.40;99.90
2477;DHT22;1249;51.270;6.756;2023-05-16T06:44:57;19.70;99.90
2477;DHT22;1249;51.270;6.756;2023-05-16T06:47:22;19.80;99.90
2477;DHT22;1249;51.270;6.756;2023-05-16T06:49:48;20.10;99.90
2477;DHT22;1249;51.270;6.756;2023-05-16T06:52:15;20.40;99.90
2477;DHT22;1249;51.270;6.756;2023-05-16T06:54:40;20.50;99.90
2477;DHT22;1249;51.270;6.756;2023-05-16T06:57:06;20.20;99.90
2477;DHT22;1249;51.270;6.756;2023-05-16T06:59:33;20.90;99.90
2477;DHT22;1249;51.270;6.756;2023-05-16T07:01:59;21.40;99.90
2477;DHT22;1249;51.270;6.756;2023-05-16T07:04:25;21.70;99.90
2477;DHT22;1249;51.270;6.756;2023-05-16T07:06:51;21.90;99.30
2477;DHT22;1249;51.270;6.756;2023-05-16T07:09:17;22.20;98.40
2477;DHT22;1249;51.270;6.756;2023-05-16T07:11:43;22.10;97.70
2477;DHT22;1249;51.270;6.756;2023-05-16T07:14:08;22.10;96.70
2477;DHT22;1249;51.270;6.756;2023-05-16T07:16:34;21.80;96.80
2477;DHT22;1249;51.270;6.756;2023-05-16T07:19:00;21.60;97.60
2477;DHT22;1249;51.270;6.756;2023-05-16T07:21:25;21.30;97.90
2477;DHT22;1249;51.270;6.756;2023-05-16T07:23:51;20.90;98.40
2477;DHT22;1249;51.270;6.756;2023-05-16T07:26:17;20.90;99.20
2477;DHT22;1249;51.270;6.756;2023-05-16T07:28:43;20.80;98.90
2477;DHT22;1249;51.270;6.756;2023-05-16T07:31:08;20.70;99.60
2477;DHT22;1249;51.270;6.756;2023-05-16T07:33:34;20.70;99.70
2477;DHT22;1249;51.270;6.756;2023-05-16T07:35:59;20.60;99.90
2477;DHT22;1249;51.270;6.756;2023-05-16T07:38:25;20.30;99.90
2477;DHT22;1249;51.270;6.756;2023-05-16T07:40:51;20.20;99.90
2477;DHT22;1249;51.270;6.756;2023-05-16T07:43:17;20.20;99.90
2477;DHT22;1249;51.270;6.756;2023-05-16T07:45:42;20.20;99.90
2477;DHT22;1249;51.270;6.756;2023-05-16T07:48:08;20.70;99.90
2477;DHT22;1249;51.270;6.756;2023-05-16T07:50:34;21.10;99.90
2477;DHT22;1249;51.270;6.756;2023-05-16T07:53:00;21.50;99.30
2477;DHT22;1249;51.270;6.756;2023-05-16T07:55:25;21.60;98.50
2477;DHT22;1249;51.270;6.756;2023-05-16T07:57:51;21.90;98.20
2477;DHT22;1249;51.270;6.756;2023-05-16T08:00:17;21.80;97.80
2477;DHT22;1249;51.270;6.756;2023-05-16T08:02:43;21.50;97.70
2477;DHT22;1249;51.270;6.756;2023-05-16T08:05:09;21.70;97.30
2477;DHT22;1249;51.270;6.756;2023-05-16T08:07:34;21.50;97.10
2477;DHT22;1249;51.270;6.756;2023-05-16T08:10:00;21.50;97.10
2477;DHT22;1249;51.270;6.756;2023-05-16T08:12:25;21.40;97.10
2477;DHT22;1249;51.270;6.756;2023-05-16T08:14:55;21.20;97.10
2477;DHT22;1249;51.270;6.756;2023-05-16T08:17:21;21.00;97.70
2477;DHT22;1249;51.270;6.756;2023-05-16T08:19:46;20.90;98.20
2477;DHT22;1249;51.270;6.756;2023-05-16T08:22:12;20.80;99.00
2477;DHT22;1249;51.270;6.756;2023-05-16T08:24:38;20.80;99.30
2477;DHT22;1249;51.270;6.756;2023-05-16T08:27:04;20.80;99.60
2477;DHT22;1249;51.270;6.756;2023-05-16T08:29:29;20.90;99.90
2477;DHT22;1249;51.270;6.756;2023-05-16T08:31:56;21.20;99.90
2477;DHT22;1249;51.270;6.756;2023-05-16T08:34:21;21.30;99.90
2477;DHT22;1249;51.270;6.756;2023-05-16T08:36:47;21.30;99.90
2477;DHT22;1249;51.270;6.756;2023-05-16T08:39:13;21.40;99.90
2477;DHT22;1249;51.270;6.756;2023-05-16T08:41:39;21.80;99.40
2477;DHT22;1249;51.270;6.756;2023-05-16T08:44:05;22.10;99.10
2477;DHT22;1249;51.270;6.756;2023-05-16T08:46:32;22.50;97.40
2477;DHT22;1249;51.270;6.756;2023-05-16T08:48:59;22.90;96.00
2477;DHT22;1249;51.270;6.756;2023-05-16T08:51:26;23.30;94.20
2477;DHT22;1249;51.270;6.756;2023-05-16T08:54:22;23.60;93.40
2477;DHT22;1249;51.270;6.756;2023-05-16T08:56:48;24.00;92.60
2477;DHT22;1249;51.270;6.756;2023-05-16T08:59:15;24.20;91.20
2477;DHT22;1249;51.270;6.756;2023-05-16T09:01:41;24.10;90.90
2477;DHT22;1249;51.270;6.756;2023-05-16T09:04:07;24.40;90.00
2477;DHT22;1249;51.270;6.756;2023-05-16T09:06:34;24.70;89.40
2477;DHT22;1249;51.270;6.756;2023-05-16T09:09:00;24.70;88.80
2477;DHT22;1249;51.270;6.756;2023-05-16T09:11:27;24.70;88.00
2477;DHT22;1249;51.270;6.756;2023-05-16T09:13:53;24.80;88.00
2477;DHT22;1249;51.270;6.756;2023-05-16T09:16:19;25.00;87.60
2477;DHT22;1249;51.270;6.756;2023-05-16T09:18:53;25.00;87.60
2477;DHT22;1249;51.270;6.756;2023-05-16T09:21:19;25.20;86.90
2477;DHT22;1249;51.270;6.756;2023-05-16T09:23:48;25.50;85.90
2477;DHT22;1249;51.270;6.756;2023-05-16T09:26:14;25.70;83.80
2477;DHT22;1249;51.270;6.756;2023-05-16T09:28:40;25.80;82.80
2477;DHT22;1249;51.270;6.756;2023-05-16T09:31:38;25.80;82.70
2477;DHT22;1249;51.270;6.756;2023-05-16T09:34:08;25.80;82.80
2477;DHT22;1249;51.270;6.756;2023-05-16T09:36:35;26.10;81.80
2477;DHT22;1249;51.270;6.756;2023-05-16T09:39:01;26.40;80.90
2477;DHT22;1249;51.270;6.756;2023-05-16T09:41:26;26.60;79.00
2477;DHT22;1249;51.270;6.756;2023-05-16T09:43:53;26.70;77.80
2477;DHT22;1249;51.270;6.756;2023-05-16T09:46:25;26.80;77.00
2477;DHT22;1249;51.270;6.756;2023-05-16T09:48:51;27.10;76.40
2477;DHT22;1249;51.270;6.756;2023-05-16T09:51:21;27.10;75.70
2477;DHT22;1249;51.270;6.756;2023-05-16T09:53:47;26.60;75.90
2477;DHT22;1249;51.270;6.756;2023-05-16T09:56:14;26.00;76.30
2477;DHT22;1249;51.270;6.756;2023-05-16T09:58:41;25.50;77.20
2477;DHT22;1249;51.270;6.756;2023-05-16T10:01:08;25.00;78.50
2477;DHT22;1249;51.270;6.756;2023-05-16T10:03:36;24.60;79.40
2477;DHT22;1249;51.270;6.756;2023-05-16T10:06:03;24.20;80.20
2477;DHT22;1249;51.270;6.756;2023-05-16T10:08:31;23.90;81.00
2477;DHT22;1249;51.270;6.756;2023-05-16T10:11:01;23.70;82.50
2477;DHT22;1249;51.270;6.756;2023-05-16T10:13:29;23.50;82.30
2477;DHT22;1249;51.270;6.756;2023-05-16T10:15:57;23.30;82.80
2477;DHT22;1249;51.270;6.756;2023-05-16T10:18:28;23.10;83.30
2477;DHT22;1249;51.270;6.756;2023-05-16T10:20:56;23.00;83.90
2477;DHT22;1249;51.270;6.756;2023-05-16T10:23:24;22.90;84.20
2477;DHT22;1249;51.270;6.756;2023-05-16T10:25:51;23.00;84.40
2477;DHT22;1249;51.270;6.756;2023-05-16T10:28:16;23.50;85.40
2477;DHT22;1249;51.270;6.756;2023-05-16T10:30:44;23.60;83.80
2477;DHT22;1249;51.270;6.756;2023-05-16T10:33:12;23.70;83.70
2477;DHT22;1249;51.270;6.756;2023-05-16T10:35:38;23.80;83.50
2477;DHT22;1249;51.270;6.756;2023-05-16T10:38:05;23.80;83.00
2477;DHT22;1249;51.270;6.756;2023-05-16T10:40:32;23.80;82.70
2477;DHT22;1249;51.270;6.756;2023-05-16T10:43:02;23.80;82.90
2477;DHT22;1249;51.270;6.756;2023-05-16T10:45:29;23.70;82.30
2477;DHT22;1249;51.270;6.756;2023-05-16T10:48:03;23.60;82.20
2477;DHT22;1249;51.270;6.756;2023-05-16T10:50:41;23.50;82.50
2477;DHT22;1249;51.270;6.756;2023-05-16T10:53:16;23.30;82.70
2477;DHT22;1249;51.270;6.756;2023-05-16T10:55:49;23.10;82.90
2477;DHT22;1249;51.270;6.756;2023-05-16T10:58:23;22.90;83.50
2477;DHT22;1249;51.270;6.756;2023-05-16T11:01:16;22.70;83.90
2477;DHT22;1249;51.270;6.756;2023-05-16T11:14:28;22.80;85.00
2477;DHT22;1249;51.270;6.756;2023-05-16T11:19:36;23.80;86.10
2477;DHT22;1249;51.270;6.756;2023-05-16T11:22:21;24.30;84.20
2477;DHT22;1249;51.270;6.756;2023-05-16T11:24:59;24.60;82.90
2477;DHT22;1249;51.270;6.756;2023-05-16T11:27:30;25.00;82.60
2477;DHT22;1249;51.270;6.756;2023-05-16T11:32:26;25.80;75.60
2477;DHT22;1249;51.270;6.756;2023-05-16T11:34:52;26.10;66.00
2477;DHT22;1249;51.270;6.756;2023-05-16T11:37:19;26.40;62.60
2477;DHT22;1249;51.270;6.756;2023-05-16T11:39:45;26.40;62.10
2477;DHT22;1249;51.270;6.756;2023-05-16T11:42:11;26.50;61.00
2477;DHT22;1249;51.270;6.756;2023-05-16T11:44:38;26.30;60.20
2477;DHT22;1249;51.270;6.756;2023-05-16T11:47:04;25.90;60.70
2477;DHT22;1249;51.270;6.756;2023-05-16T11:49:30;25.70;61.30
2477;DHT22;1249;51.270;6.756;2023-05-16T11:51:56;25.40;61.90
2477;DHT22;1249;51.270;6.756;2023-05-16T11:54:22;25.10;62.50
2477;DHT22;1249;51.270;6.756;2023-05-16T11:56:49;24.70;63.90
2477;DHT22;1249;51.270;6.756;2023-05-16T11:59:16;24.60;64.10
2477;DHT22;1249;51.270;6.756;2023-05-16T12:01:42;24.70;64.30
2477;DHT22;1249;51.270;6.756;2023-05-16T12:04:08;24.80;64.00
2477;DHT22;1249;51.270;6.756;2023-05-16T12:06:35;24.70;64.50
2477;DHT22;1249;51.270;6.756;2023-05-16T12:09:00;24.60;67.90
2477;DHT22;1249;51.270;6.756;2023-05-16T12:11:36;24.80;67.40
2477;DHT22;1249;51.270;6.756;2023-05-16T12:14:03;24.80;65.00
2477;DHT22;1249;51.270;6.756;2023-05-16T12:16:29;25.00;65.40
2477;DHT22;1249;51.270;6.756;2023-05-16T12:18:56;25.10;63.30
2477;DHT22;1249;51.270;6.756;2023-05-16T12:21:21;25.60;60.20
2477;DHT22;1249;51.270;6.756;2023-05-16T12:23:47;25.90;59.60
2477;DHT22;1249;51.270;6.756;2023-05-16T12:26:12;26.10;58.30
2477;DHT22;1249;51.270;6.756;2023-05-16T12:28:38;26.40;55.90
2477;DHT22;1249;51.270;6.756;2023-05-16T12:31:10;26.70;55.70
2477;DHT22;1249;51.270;6.756;2023-05-16T12:33:36;26.90;55.30
2477;DHT22;1249;51.270;6.756;2023-05-16T12:36:02;27.20;54.60
2477;DHT22;1249;51.270;6.756;2023-05-16T12:38:29;27.40;54.20
2477;DHT22;1249;51.270;6.756;2023-05-16T12:40:58;27.60;52.80
2477;DHT22;1249;51.270;6.756;2023-05-16T12:43:24;27.70;51.80
2477;DHT22;1249;51.270;6.756;2023-05-16T12:45:51;27.70;51.40
2477;DHT22;1249;51.270;6.756;2023-05-16T12:48:20;27.90;50.60
2477;DHT22;1249;51.270;6.756;2023-05-16T12:50:46;27.80;50.10
2477;DHT22;1249;51.270;6.756;2023-05-16T12:53:12;27.80;50.50
2477;DHT22;1249;51.270;6.756;2023-05-16T12:55:38;28.00;50.30
2477;DHT22;1249;51.270;6.756;2023-05-16T12:58:04;28.20;50.30
2477;DHT22;1249;51.270;6.756;2023-05-16T13:00:30;28.40;50.10
2477;DHT22;1249;51.270;6.756;2023-05-16T13:02:58;28.60;49.50
2477;DHT22;1249;51.270;6.756;2023-05-16T13:05:24;28.30;49.50
2477;DHT22;1249;51.270;6.756;2023-05-16T13:07:50;28.20;48.70
2477;DHT22;1249;51.270;6.756;2023-05-16T13:10:18;28.00;49.20
2477;DHT22;1249;51.270;6.756;2023-05-16T13:12:45;28.10;49.00
2477;DHT22;1249;51.270;6.756;2023-05-16T13:15:11;28.30;48.90
2477;DHT22;1249;51.270;6.756;2023-05-16T13:17:38;28.40;48.30
2477;DHT22;1249;51.270;6.756;2023-05-16T13:20:04;28.50;48.40
2477;DHT22;1249;51.270;6.756;2023-05-16T13:22:35;28.70;48.00
2477;DHT22;1249;51.270;6.756;2023-05-16T13:25:01;28.80;47.50
2477;DHT22;1249;51.270;6.756;2023-05-16T13:27:26;29.00;46.40
2477;DHT22;1249;51.270;6.756;2023-05-16T13:29:52;29.20;46.40
2477;DHT22;1249;51.270;6.756;2023-05-16T13:32:18;29.30;46.80
2477;DHT22;1249;51.270;6.756;2023-05-16T13:34:43;29.40;45.40
2477;DHT22;1249;51.270;6.756;2023-05-16T13:37:09;29.60;45.90
2477;DHT22;1249;51.270;6.756;2023-05-16T13:39:35;29.30;46.20
2477;DHT22;1249;51.270;6.756;2023-05-16T13:42:00;28.80;45.60
2477;DHT22;1249;51.270;6.756;2023-05-16T13:44:28;28.10;45.80
2477;DHT22;1249;51.270;6.756;2023-05-16T13:46:54;27.90;46.80
2477;DHT22;1249;51.270;6.756;2023-05-16T13:49:21;27.70;46.50
2477;DHT22;1249;51.270;6.756;2023-05-16T13:51:46;27.30;48.00
2477;DHT22;1249;51.270;6.756;2023-05-16T13:54:12;27.60;48.50
2477;DHT22;1249;51.270;6.756;2023-05-16T13:56:37;27.60;47.40
2477;DHT22;1249;51.270;6.756;2023-05-16T13:59:03;28.00;47.40
2477;DHT22;1249;51.270;6.756;2023-05-16T14:01:29;28.00;46.60
2477;DHT22;1249;51.270;6.756;2023-05-16T14:03:54;27.70;46.40
2477;DHT22;1249;51.270;6.756;2023-05-16T14:06:20;27.30;47.50
2477;DHT22;1249;51.270;6.756;2023-05-16T14:08:46;26.90;48.70
2477;DHT22;1249;51.270;6.756;2023-05-16T14:11:11;26.50;48.10
2477;DHT22;1249;51.270;6.756;2023-05-16T14:13:37;26.10;49.30
2477;DHT22;1249;51.270;6.756;2023-05-16T14:16:05;25.70;49.90
2477;DHT22;1249;51.270;6.756;2023-05-16T14:18:31;25.40;50.70
2477;DHT22;1249;51.270;6.756;2023-05-16T14:20:56;25.10;52.20
2477;DHT22;1249;51.270;6.756;2023-05-16T14:23:22;25.10;53.00
2477;DHT22;1249;51.270;6.756;2023-05-16T14:25:48;25.10;53.90
2477;DHT22;1249;51.270;6.756;2023-05-16T14:28:13;25.00;55.00
2477;DHT22;1249;51.270;6.756;2023-05-16T14:30:39;25.20;55.30
2477;DHT22;1249;51.270;6.756;2023-05-16T14:33:05;25.30;56.60
2477;DHT22;1249;51.270;6.756;2023-05-16T14:35:31;25.30;56.80
2477;DHT22;1249;51.270;6.756;2023-05-16T14:37:57;25.20;56.90
2477;DHT22;1249;51.270;6.756;2023-05-16T14:40:23;25.10;57.30
2477;DHT22;1249;51.270;6.756;2023-05-16T14:42:48;25.10;57.50
2477;DHT22;1249;51.270;6.756;2023-05-16T14:45:15;24.90;57.50
2477;DHT22;1249;51.270;6.756;2023-05-16T14:47:41;24.70;56.80
2477;DHT22;1249;51.270;6.756;2023-05-16T14:50:07;24.50;57.90
2477;DHT22;1249;51.270;6.756;2023-05-16T14:52:33;24.70;57.60
2477;DHT22;1249;51.270;6.756;2023-05-16T14:54:58;25.30;58.20
2477;DHT22;1249;51.270;6.756;2023-05-16T14:57:28;25.90;58.20
2477;DHT22;1249;51.270;6.756;2023-05-16T14:59:55;26.10;57.60
2477;DHT22;1249;51.270;6.756;2023-05-16T15:02:20;26.20;58.00
2477;DHT22;1249;51.270;6.756;2023-05-16T15:04:46;26.10;58.00
2477;DHT22;1249;51.270;6.756;2023-05-16T15:07:11;26.00;58.20
2477;DHT22;1249;51.270;6.756;2023-05-16T15:09:37;25.80;58.50
2477;DHT22;1249;51.270;6.756;2023-05-16T15:12:03;25.60;59.00
2477;DHT22;1249;51.270;6.756;2023-05-16T15:14:29;25.40;59.50
2477;DHT22;1249;51.270;6.756;2023-05-16T15:16:54;25.20;61.00
2477;DHT22;1249;51.270;6.756;2023-05-16T15:19:20;25.10;61.60
2477;DHT22;1249;51.270;6.756;2023-05-16T15:21:46;24.90;62.20
2477;DHT22;1249;51.270;6.756;2023-05-16T15:24:11;24.70;62.50
2477;DHT22;1249;51.270;6.756;2023-05-16T15:26:38;24.60;62.60
2477;DHT22;1249;51.270;6.756;2023-05-16T15:29:04;24.40;63.00
2477;DHT22;1249;51.270;6.756;2023-05-16T15:31:29;24.30;63.00
2477;DHT22;1249;51.270;6.756;2023-05-16T15:33:56;24.30;63.20
2477;DHT22;1249;51.270;6.756;2023-05-16T15:36:21;24.20;63.90
2477;DHT22;1249;51.270;6.756;2023-05-16T15:38:47;24.10;63.90
2477;DHT22;1249;51.270;6.756;2023-05-16T15:41:13;24.10;63.50
2477;DHT22;1249;51.270;6.756;2023-05-16T15:43:40;24.00;63.70
2477;DHT22;1249;51.270;6.756;2023-05-16T15:46:07;23.90;64.20
2477;DHT22;1249;51.270;6.756;2023-05-16T15:48:34;23.80;64.40
2477;DHT22;1249;51.270;6.756;2023-05-16T15:51:00;23.70;63.90
2477;DHT22;1249;51.270;6.756;2023-05-16T15:53:26;23.60;63.30
2477;DHT22;1249;51.270;6.756;2023-05-16T15:55:51;23.50;63.60
2477;DHT22;1249;51.270;6.756;2023-05-16T15:58:17;23.40;64.10
2477;DHT22;1249;51.270;6.756;2023-05-16T16:00:42;23.40;64.80
2477;DHT22;1249;51.270;6.756;2023-05-16T16:03:09;23.30;65.90
2477;DHT22;1249;51.270;6.756;2023-05-16T16:05:35;23.20;66.70
2477;DHT22;1249;51.270;6.756;2023-05-16T16:08:01;23.10;67.30
2477;DHT22;1249;51.270;6.756;2023-05-16T16:10:26;22.90;67.70
2477;DHT22;1249;51.270;6.756;2023-05-16T16:12:59;22.90;68.40
2477;DHT22;1249;51.270;6.756;2023-05-16T16:15:26;22.70;69.10
2477;DHT22;1249;51.270;6.756;2023-05-16T16:17:51;22.60;69.40
2477;DHT22;1249;51.270;6.756;2023-05-16T16:20:17;22.50;69.90
2477;DHT22;1249;51.270;6.756;2023-05-16T16:22:42;22.40;70.10
2477;DHT22;1249;51.270;6.756;2023-05-16T16:25:08;22.40;70.30
2477;DHT22;1249;51.270;6.756;2023-05-16T16:27:33;22.30;70.60